Time;durP1;ratioP1;P1;durP2;ratioP2;P2;SDS_P1;SDS_P2;PMS_P1;PMS_P2;Temp;Humidity;BMP_temperature;BMP_pressure;BME280_temperature;BME280_humidity;BME280_pressure;Samples;Min_cycle;Max_cycle;Signal;HPM_P1;HPM_P2
2023/04/15 00:00:43;;;;;;;1.70;1.60;;;;;3.20;95022.00;;;;5053483;28;20246;-64
2023/04/15 00:03:11;;;;;;;1.70;1.60;;;;;3.20;95024.00;;;;5052849;28;20265;-63
2023/04/15 00:05:40;;;;;;;0.80;0.80;;;;;3.00;95017.00;;;;5052900;28;20185;-63
2023/04/15 00:08:07;;;;;;;0.77;0.77;;;;;3.00;95021.00;;;;5052826;28;20760;-63
2023/04/15 00:10:35;;;;;;;1.70;1.60;;;;;3.10;95018.00;;;;5053564;28;20288;-63
2023/04/15 00:13:03;;;;;;;0.60;0.60;;;;;3.20;95012.00;;;;5053363;28;20246;-63
2023/04/15 00:15:30;;;;;;;0.93;0.93;;;;;3.20;95017.00;;;;5052975;28;20721;-63
2023/04/15 00:17:58;;;;;;;0.77;0.77;;;;;3.10;95009.00;;;;5034801;28;20710;-63
2023/04/15 00:20:25;;;;;;;1.07;1.07;;;;;3.00;95007.00;;;;5052957;28;20220;-63
2023/04/15 00:22:54;;;;;;;1.30;1.27;;;;;2.90;95012.00;;;;5052762;28;20242;-63
2023/04/15 00:25:21;;;;;;;0.83;0.83;;;;;2.80;95010.00;;;;5052702;28;20188;-62
2023/04/15 00:27:48;;;;;;;0.60;0.60;;;;;2.80;95013.00;;;;5052511;28;20216;-63
2023/04/15 00:30:16;;;;;;;0.67;0.67;;;;;2.70;95007.00;;;;5052655;28;20192;-63
2023/04/15 00:32:43;;;;;;;0.83;0.83;;;;;2.70;95006.00;;;;5052635;28;20655;-63
2023/04/15 00:35:11;;;;;;;0.97;0.97;;;;;2.60;95002.00;;;;5052817;28;20235;-63
2023/04/15 00:37:38;;;;;;;0.80;0.80;;;;;2.60;94999.00;;;;5034850;28;20729;-62
2023/04/15 00:40:12;;;;;;;2.10;1.43;;;;;2.60;95001.00;;;;5052810;28;20602;-63
2023/04/15 00:42:40;;;;;;;1.00;1.00;;;;;2.60;94991.00;;;;5034623;28;20233;-63
2023/04/15 00:45:08;;;;;;;9.50;1.27;;;;;2.70;94992.00;;;;5034712;28;20208;-63
2023/04/15 00:47:37;;;;;;;0.90;0.90;;;;;2.50;95008.00;;;;5052445;28;20765;-63
2023/04/15 00:50:05;;;;;;;1.27;1.27;;;;;2.60;95002.00;;;;5052939;28;20196;-63
2023/04/15 00:52:33;;;;;;;0.70;0.70;;;;;2.40;94996.00;;;;5052448;28;20659;-63
2023/04/15 00:55:01;;;;;;;0.93;0.93;;;;;2.30;95002.00;;;;5052548;28;20311;-63
2023/04/15 00:57:30;;;;;;;0.70;0.70;;;;;2.30;95004.00;;;;5052199;28;20232;-63
2023/04/15 00:59:57;;;;;;;0.80;0.80;;;;;2.20;95004.00;;;;5052459;28;20196;-63
2023/04/15 01:02:25;;;;;;;2.20;1.77;;;;;2.10;95006.00;;;;5052608;28;20533;-63
2023/04/15 01:04:53;;;;;;;1.57;1.47;;;;;2.20;95000.00;;;;5052840;28;20642;-64
2023/04/15 01:07:20;;;;;;;1.50;1.40;;;;;2.30;95011.00;;;;5052217;28;20243;-63
2023/04/15 01:09:48;;;;;;;1.13;1.03;;;;;2.20;95003.00;;;;5055565;28;20652;-63
2023/04/15 01:12:16;;;;;;;3.30;1.00;;;;;2.10;95002.00;;;;5055844;28;20193;-63
2023/04/15 01:14:45;;;;;;;1.20;1.20;;;;;2.10;95003.00;;;;5055831;28;20220;-63
2023/04/15 01:17:13;;;;;;;0.80;0.80;;;;;2.20;94999.00;;;;5055670;28;20226;-63
2023/04/15 01:19:40;;;;;;;1.13;1.13;;;;;2.20;94996.00;;;;5055740;28;20269;-63
2023/04/15 01:22:08;;;;;;;0.80;0.80;;;;;2.30;95003.00;;;;5037803;28;20192;-63
2023/04/15 01:24:37;;;;;;;0.97;0.97;;;;;2.50;94994.00;;;;5055637;28;20199;-63
2023/04/15 01:27:06;;;;;;;0.83;0.83;;;;;2.50;94999.00;;;;5055539;28;20691;-63
2023/04/15 01:29:36;;;;;;;1.30;1.20;;;;;2.50;95004.00;;;;5055587;28;20199;-63
2023/04/15 01:32:03;;;;;;;4.80;1.17;;;;;2.30;95000.00;;;;5055485;28;20223;-63
2023/04/15 01:34:31;;;;;;;0.70;0.70;;;;;2.30;95000.00;;;;5037534;28;20290;-63
2023/04/15 01:36:58;;;;;;;0.60;0.60;;;;;2.20;95004.00;;;;5055370;28;20683;-63
2023/04/15 01:39:25;;;;;;;0.90;0.90;;;;;2.30;95004.00;;;;5055375;28;20195;-63
2023/04/15 01:41:53;;;;;;;0.70;0.70;;;;;2.20;95001.00;;;;5055383;28;20275;-63
2023/04/15 01:44:21;;;;;;;0.60;0.60;;;;;2.40;94993.00;;;;5055244;28;20650;-63
2023/04/15 01:46:49;;;;;;;0.83;0.83;;;;;2.30;94995.00;;;;5055432;28;20223;-63
2023/04/15 01:49:16;;;;;;;0.80;0.80;;;;;2.20;94989.00;;;;5055177;28;20196;-63
2023/04/15 01:51:43;;;;;;;0.77;0.77;;;;;2.30;94989.00;;;;5055424;28;20204;-63
2023/04/15 01:54:11;;;;;;;0.70;0.70;;;;;2.20;94989.00;;;;5055125;28;20245;-63
2023/04/15 01:56:38;;;;;;;1.03;1.03;;;;;2.20;94988.00;;;;5054837;28;20231;-63
2023/04/15 01:59:06;;;;;;;1.30;1.13;;;;;2.10;94991.00;;;;5055086;28;20223;-64
2023/04/15 02:01:35;;;;;;;0.80;0.80;;;;;2.00;94986.00;;;;5054968;28;20205;-63
2023/04/15 02:04:02;;;;;;;0.80;0.80;;;;;2.00;94993.00;;;;5054898;28;20192;-62
2023/04/15 02:06:29;;;;;;;0.80;0.80;;;;;2.00;94989.00;;;;5055027;28;20192;-63
2023/04/15 02:08:57;;;;;;;1.43;1.33;;;;;1.90;94982.00;;;;5054843;28;20199;-63
2023/04/15 02:11:25;;;;;;;0.70;0.70;;;;;1.80;94990.00;;;;5055053;28;20579;-62
2023/04/15 02:13:52;;;;;;;2.07;1.93;;;;;1.70;94989.00;;;;5054983;28;20557;-63
2023/04/15 02:16:20;;;;;;;0.90;0.90;;;;;1.70;94979.00;;;;5054469;28;20219;-64
2023/04/15 02:18:50;;;;;;;1.07;1.07;;;;;1.70;94978.00;;;;5054590;28;20195;-63
2023/04/15 02:21:18;;;;;;;0.90;0.90;;;;;1.70;94978.00;;;;5054883;28;20214;-63
2023/04/15 02:23:47;;;;;;;1.23;1.23;;;;;1.60;94979.00;;;;5054770;28;20739;-63
2023/04/15 02:26:14;;;;;;;0.83;0.83;;;;;1.70;94984.00;;;;5054429;28;20191;-63
2023/04/15 02:28:42;;;;;;;1.00;1.00;;;;;1.70;94993.00;;;;5036491;28;20216;-63
2023/04/15 02:31:09;;;;;;;0.70;0.70;;;;;1.70;94985.00;;;;5054407;28;20199;-63
2023/04/15 02:33:36;;;;;;;0.90;0.90;;;;;1.80;94998.00;;;;5054430;28;20223;-63
2023/04/15 02:36:06;;;;;;;0.83;0.83;;;;;1.90;94988.00;;;;5054165;28;20219;-63
2023/04/15 02:38:34;;;;;;;0.83;0.83;;;;;1.90;94995.00;;;;5054200;28;20232;-63
2023/04/15 02:41:01;;;;;;;1.13;1.13;;;;;2.00;94993.00;;;;5036185;28;20682;-63
2023/04/15 02:43:29;;;;;;;0.83;0.83;;;;;1.80;94990.00;;;;5054110;28;20208;-63
2023/04/15 02:45:56;;;;;;;1.10;1.10;;;;;1.70;94980.00;;;;5036193;28;20736;-63
2023/04/15 02:48:24;;;;;;;0.77;0.77;;;;;1.60;94982.00;;;;5054015;28;20690;-65
2023/04/15 02:50:51;;;;;;;1.30;1.30;;;;;1.60;94982.00;;;;5054168;28;20195;-63
2023/04/15 02:53:20;;;;;;;1.00;1.00;;;;;1.70;94981.00;;;;5054041;28;20651;-63
2023/04/15 02:55:47;;;;;;;0.70;0.70;;;;;1.70;94980.00;;;;5053800;28;20223;-65
2023/04/15 02:58:14;;;;;;;1.20;1.20;;;;;1.80;94987.00;;;;5053825;28;20223;-63
2023/04/15 03:00:42;;;;;;;2.47;1.37;;;;;1.80;94986.00;;;;5053853;28;20227;-63
2023/04/15 03:03:09;;;;;;;7.00;1.27;;;;;1.60;94985.00;;;;5053859;28;20202;-63
2023/04/15 03:05:38;;;;;;;0.70;0.70;;;;;1.50;94976.00;;;;5053820;28;20550;-63
2023/04/15 03:08:06;;;;;;;1.10;1.10;;;;;1.20;94976.00;;;;5053911;28;20578;-63
2023/04/15 03:10:35;;;;;;;0.73;0.73;;;;;1.00;94987.00;;;;5053648;28;20231;-63
2023/04/15 03:13:02;;;;;;;0.60;0.60;;;;;1.00;94981.00;;;;5054505;28;20257;-63
2023/04/15 03:15:29;;;;;;;1.63;1.53;;;;;1.10;94989.00;;;;5053971;28;20227;-63
2023/04/15 03:17:57;;;;;;;0.80;0.80;;;;;1.30;94982.00;;;;5053679;28;20223;-63
2023/04/15 03:20:24;;;;;;;0.90;0.90;;;;;1.30;94992.00;;;;5054299;28;20195;-63
2023/04/15 03:22:51;;;;;;;0.87;0.87;;;;;1.30;94983.00;;;;5054614;28;20533;-63
2023/04/15 03:25:19;;;;;;;0.93;0.93;;;;;1.50;94985.00;;;;5053467;28;20214;-63
2023/04/15 03:27:47;;;;;;;0.70;0.70;;;;;1.50;94995.00;;;;5054088;28;20223;-63
2023/04/15 03:30:15;;;;;;;0.80;0.80;;;;;1.10;94986.00;;;;5054017;28;20192;-63
2023/04/15 03:32:42;;;;;;;0.70;0.70;;;;;1.20;94995.00;;;;5053342;28;20202;-63
2023/04/15 03:35:10;;;;;;;1.00;1.00;;;;;1.30;94991.00;;;;5053395;28;20295;-63
2023/04/15 03:37:37;;;;;;;0.70;0.70;;;;;1.20;94990.00;;;;5053203;28;20219;-63
2023/04/15 03:40:06;;;;;;;0.90;0.90;;;;;1.30;94979.00;;;;5053213;28;20199;-63
2023/04/15 03:42:33;;;;;;;3.93;2.10;;;;;1.40;94978.00;;;;5053164;28;20274;-63
2023/04/15 03:45:02;;;;;;;1.70;1.37;;;;;1.50;94977.00;;;;5053367;28;20573;-63
2023/04/15 03:47:29;;;;;;;1.00;1.00;;;;;1.40;94978.00;;;;5053591;28;20216;-63
2023/04/15 03:49:57;;;;;;;0.73;0.73;;;;;1.30;94974.00;;;;5053008;28;20693;-63
2023/04/15 03:52:24;;;;;;;1.63;1.53;;;;;1.10;94972.00;;;;5052990;28;20199;-63
2023/04/15 03:54:51;;;;;;;1.00;1.00;;;;;1.00;94975.00;;;;5053203;28;20662;-63
2023/04/15 03:57:19;;;;;;;0.90;0.90;;;;;1.00;94975.00;;;;5053000;28;20226;-63
2023/04/15 03:59:46;;;;;;;0.67;0.67;;;;;1.00;94969.00;;;;5053241;28;20561;-63
2023/04/15 04:02:15;;;;;;;0.73;0.73;;;;;1.00;94970.00;;;;5053412;28;20609;-63
2023/04/15 04:04:43;;;;;;;1.13;1.13;;;;;1.10;94971.00;;;;5052803;28;20682;-63
2023/04/15 04:07:15;;;;;;;1.10;1.10;;;;;1.10;94967.00;;;;5052823;28;20225;-63
2023/04/15 04:09:43;;;;;;;0.63;0.63;;;;;1.00;94958.00;;;;5053215;28;20232;-63
2023/04/15 04:12:10;;;;;;;0.87;0.87;;;;;1.00;94972.00;;;;5053368;28;20252;-63
2023/04/15 04:14:38;;;;;;;1.00;1.00;;;;;0.90;94974.00;;;;5053121;28;20586;-63
2023/04/15 04:17:05;;;;;;;0.70;0.70;;;;;0.90;94973.00;;;;5052603;28;20219;-63
2023/04/15 04:19:34;;;;;;;0.90;0.90;;;;;0.90;94970.00;;;;5053021;28;20205;-63
2023/04/15 04:22:02;;;;;;;0.70;0.70;;;;;0.80;94974.00;;;;5052717;28;20607;-63
2023/04/15 04:24:30;;;;;;;1.00;1.00;;;;;0.70;94976.00;;;;5035080;28;20294;-64
2023/04/15 04:26:57;;;;;;;0.80;0.80;;;;;0.60;94984.00;;;;5052881;28;20620;-63
2023/04/15 04:29:25;;;;;;;0.90;0.90;;;;;0.70;94969.00;;;;5052929;28;20202;-63
2023/04/15 04:31:52;;;;;;;0.83;0.83;;;;;0.80;94969.00;;;;5052626;28;20206;-63
2023/04/15 04:34:19;;;;;;;1.33;1.33;;;;;0.80;94978.00;;;;5052634;28;20304;-64
2023/04/15 04:36:48;;;;;;;2.00;1.30;;;;;0.90;94968.00;;;;5052728;28;20226;-63
2023/04/15 04:39:15;;;;;;;0.60;0.60;;;;;0.90;94980.00;;;;5052596;28;20195;-63
2023/04/15 04:41:44;;;;;;;1.20;1.20;;;;;0.90;94981.00;;;;5052864;28;20257;-63
2023/04/15 04:44:11;;;;;;;0.90;0.90;;;;;0.90;94973.00;;;;5054690;28;20553;-63
2023/04/15 04:46:38;;;;;;;0.63;0.63;;;;;0.90;94980.00;;;;5056273;28;20222;-63
2023/04/15 04:49:06;;;;;;;0.80;0.80;;;;;0.90;94970.00;;;;5056953;28;20189;-63
2023/04/15 04:51:33;;;;;;;0.93;0.93;;;;;0.80;94985.00;;;;5056250;28;20253;-62
2023/04/15 04:54:03;;;;;;;0.80;0.80;;;;;0.90;94979.00;;;;5056454;28;20206;-63
2023/04/15 04:56:30;;;;;;;0.63;0.63;;;;;1.00;94983.00;;;;5056283;28;20647;-63
2023/04/15 04:58:57;;;;;;;1.00;1.00;;;;;0.90;94988.00;;;;5056609;28;20256;-63
2023/04/15 05:01:26;;;;;;;1.30;1.20;;;;;0.80;94990.00;;;;5056038;28;20194;-63
2023/04/15 05:03:53;;;;;;;0.70;0.70;;;;;0.80;94981.00;;;;5056312;28;20196;-62
2023/04/15 05:06:21;;;;;;;0.80;0.80;;;;;0.90;94987.00;;;;5056201;28;20217;-63
2023/04/15 05:08:48;;;;;;;1.23;1.23;;;;;1.00;94985.00;;;;5056255;28;20248;-63
2023/04/15 05:11:17;;;;;;;1.10;1.10;;;;;1.10;94981.00;;;;5055951;28;20277;-63
2023/04/15 05:13:45;;;;;;;1.50;1.23;;;;;1.10;94989.00;;;;5038048;28;20198;-62
2023/04/15 05:16:12;;;;;;;0.90;0.90;;;;;1.20;94989.00;;;;5055906;28;20242;-63
2023/04/15 05:18:40;;;;;;;1.00;1.00;;;;;1.20;94994.00;;;;5055720;28;20219;-63
2023/04/15 05:21:07;;;;;;;1.40;1.03;;;;;1.10;94989.00;;;;5055685;28;20240;-63
2023/04/15 05:23:34;;;;;;;1.57;0.97;;;;;1.10;94989.00;;;;5055661;28;20677;-63
2023/04/15 05:26:02;;;;;;;0.87;0.87;;;;;1.10;94988.00;;;;5055842;28;20271;-62
2023/04/15 05:28:31;;;;;;;0.70;0.70;;;;;1.20;94989.00;;;;5055597;28;20215;-63
2023/04/15 05:30:58;;;;;;;0.80;0.80;;;;;1.40;94991.00;;;;5055560;28;20190;-62
2023/04/15 05:33:26;;;;;;;0.80;0.80;;;;;1.40;94988.00;;;;5037611;28;20665;-63
2023/04/15 05:35:53;;;;;;;0.87;0.87;;;;;1.40;94992.00;;;;5055715;28;20269;-63
2023/04/15 05:38:21;;;;;;;0.87;0.87;;;;;1.40;94991.00;;;;5055581;28;20626;-62
2023/04/15 05:40:48;;;;;;;0.90;0.90;;;;;1.50;95000.00;;;;5055636;28;20254;-62
2023/04/15 05:43:15;;;;;;;1.53;1.43;;;;;1.50;94983.00;;;;5055413;28;20196;-63
2023/04/15 05:45:44;;;;;;;0.73;0.73;;;;;1.60;94999.00;;;;5055351;28;20199;-63
2023/04/15 05:48:12;;;;;;;1.00;1.00;;;;;1.50;94998.00;;;;5037276;28;20220;-62
2023/04/15 05:50:41;;;;;;;0.90;0.90;;;;;1.80;94996.00;;;;5055490;28;20201;-62
2023/04/15 05:53:09;;;;;;;0.70;0.70;;;;;1.80;94985.00;;;;5055414;28;20698;-62
2023/04/15 05:55:36;;;;;;;1.00;1.00;;;;;1.90;94994.00;;;;5036727;28;20210;-62
2023/04/15 05:58:04;;;;;;;0.83;0.83;;;;;2.00;94997.00;;;;5055072;28;20236;-64
2023/04/15 06:00:31;;;;;;;1.00;1.00;;;;;2.10;94988.00;;;;5055342;28;20214;-62
2023/04/15 06:03:00;;;;;;;0.70;0.70;;;;;2.00;94994.00;;;;5054954;28;20196;-63
2023/04/15 06:05:28;;;;;;;0.70;0.70;;;;;2.10;94999.00;;;;5037081;28;20254;-63
2023/04/15 06:07:55;;;;;;;6.13;2.00;;;;;2.00;94996.00;;;;5054903;28;20211;-63
2023/04/15 06:10:22;;;;;;;1.43;1.33;;;;;2.00;95002.00;;;;5055369;28;20202;-63
2023/04/15 06:12:50;;;;;;;1.10;1.10;;;;;2.10;94995.00;;;;5055094;28;20711;-63
2023/04/15 06:15:17;;;;;;;0.90;0.90;;;;;2.00;94998.00;;;;5055026;28;20200;-63
2023/04/15 06:17:45;;;;;;;0.97;0.97;;;;;2.10;95001.00;;;;5036744;28;20251;-63
2023/04/15 06:20:14;;;;;;;1.53;1.43;;;;;2.20;95003.00;;;;5054857;28;20200;-63
2023/04/15 06:22:41;;;;;;;0.60;0.60;;;;;2.20;95000.00;;;;5054894;28;20200;-63
2023/04/15 06:25:09;;;;;;;0.77;0.77;;;;;2.30;94999.00;;;;5054670;28;20199;-63
2023/04/15 06:27:37;;;;;;;0.60;0.60;;;;;2.20;95002.00;;;;5054515;28;20235;-63
2023/04/15 06:30:05;;;;;;;1.10;1.10;;;;;2.40;95005.00;;;;5054556;28;20208;-63
2023/04/15 06:32:33;;;;;;;1.23;1.23;;;;;2.40;95013.00;;;;5054420;28;20659;-63
2023/04/15 06:35:00;;;;;;;0.80;0.80;;;;;2.50;95001.00;;;;5054387;28;20208;-61
2023/04/15 06:37:29;;;;;;;1.73;1.63;;;;;2.50;95009.00;;;;5054902;28;20234;-63
2023/04/15 06:39:56;;;;;;;0.63;0.63;;;;;2.70;95002.00;;;;5054940;28;20199;-62
2023/04/15 06:42:24;;;;;;;1.63;1.27;;;;;2.70;95001.00;;;;5054243;28;20196;-62
2023/04/15 06:44:51;;;;;;;0.97;0.97;;;;;2.70;95010.00;;;;5054490;28;20286;-62
2023/04/15 06:47:19;;;;;;;3.03;1.37;;;;;2.90;95007.00;;;;5054820;28;20234;-62
2023/04/15 06:49:46;;;;;;;2.17;1.97;;;;;3.00;95014.00;;;;5054184;28;20240;-62
2023/04/15 06:52:15;;;;;;;3.50;1.50;;;;;3.10;95003.00;;;;5054070;28;20265;-62
2023/04/15 06:54:44;;;;;;;1.20;1.20;;;;;3.30;95015.00;;;;5054220;28;20279;-62
2023/04/15 06:57:11;;;;;;;1.20;1.20;;;;;3.50;95006.00;;;;5053753;28;20406;-62
2023/04/15 06:59:38;;;;;;;1.10;1.07;;;;;3.60;95009.00;;;;5053964;28;20188;-62
2023/04/15 07:02:07;;;;;;;1.10;1.10;;;;;3.60;95013.00;;;;5054072;28;20246;-62
2023/04/15 07:04:35;;;;;;;3.60;1.80;;;;;3.80;95006.00;;;;5053818;28;20199;-62
2023/04/15 07:07:02;;;;;;;1.10;1.10;;;;;3.90;95003.00;;;;5053210;28;20212;-63
2023/04/15 07:09:30;;;;;;;1.97;1.83;;;;;4.10;95003.00;;;;5036095;28;20196;-62
2023/04/15 07:11:58;;;;;;;1.10;1.10;;;;;4.20;94999.00;;;;5053993;28;20196;-62
2023/04/15 07:14:26;;;;;;;1.47;1.37;;;;;4.40;94998.00;;;;5053666;28;20274;-63
2023/04/15 07:16:54;;;;;;;0.80;0.80;;;;;4.50;94998.00;;;;5035491;28;20227;-62
2023/04/15 07:19:22;;;;;;;0.90;0.90;;;;;4.70;94992.00;;;;5054307;28;20203;-63
2023/04/15 07:21:50;;;;;;;0.90;0.90;;;;;4.90;94990.00;;;;5053807;28;20224;-63
2023/04/15 07:24:18;;;;;;;1.47;1.37;;;;;5.00;94993.00;;;;5054253;28;20196;-63
2023/04/15 07:26:46;;;;;;;1.13;1.13;;;;;5.00;94998.00;;;;5053384;28;20204;-62
2023/04/15 07:29:15;;;;;;;0.93;0.93;;;;;4.90;94992.00;;;;5053434;28;20200;-63
2023/04/15 07:31:42;;;;;;;1.00;1.00;;;;;5.10;94987.00;;;;5053636;28;20227;-63
2023/04/15 07:34:10;;;;;;;0.70;0.70;;;;;5.40;95000.00;;;;5053453;28;20197;-63
2023/04/15 07:36:37;;;;;;;1.27;1.17;;;;;5.40;94994.00;;;;5053259;28;20580;-63
2023/04/15 07:39:04;;;;;;;1.43;1.00;;;;;5.60;95006.00;;;;5053309;28;20196;-61
2023/04/15 07:41:32;;;;;;;1.33;1.23;;;;;5.80;94998.00;;;;5053193;28;20196;-61
2023/04/15 07:43:59;;;;;;;10.70;1.87;;;;;5.90;95003.00;;;;5053110;28;20198;-59
2023/04/15 07:46:28;;;;;;;1.13;1.13;;;;;6.10;95004.00;;;;5053048;28;20192;-60
2023/04/15 07:48:56;;;;;;;1.17;1.17;;;;;6.30;94998.00;;;;5053039;28;20188;-60
2023/04/15 07:51:23;;;;;;;1.63;1.20;;;;;6.40;95012.00;;;;5035221;28;20204;-59
2023/04/15 07:53:51;;;;;;;1.10;1.10;;;;;6.40;95008.00;;;;5052981;28;20193;-60
2023/04/15 07:56:19;;;;;;;0.80;0.80;;;;;6.50;94994.00;;;;5052869;28;20199;-61
2023/04/15 07:58:46;;;;;;;1.10;1.10;;;;;6.50;94995.00;;;;5053223;28;20203;-60
2023/04/15 08:01:14;;;;;;;0.60;0.60;;;;;6.70;95000.00;;;;5053211;28;20203;-60
2023/04/15 08:03:43;;;;;;;0.70;0.70;;;;;6.70;95002.00;;;;5053048;28;20191;-60
2023/04/15 08:06:11;;;;;;;1.03;0.90;;;;;6.90;94998.00;;;;5053559;28;20562;-62
2023/04/15 08:08:38;;;;;;;1.10;1.03;;;;;7.10;95000.00;;;;5053354;28;20288;-62
2023/04/15 08:11:06;;;;;;;0.63;0.63;;;;;7.20;95005.00;;;;5053007;28;20198;-62
2023/04/15 08:13:33;;;;;;;0.93;0.93;;;;;7.20;94992.00;;;;5052873;28;20277;-62
2023/04/15 08:16:18;;;;;;;0.67;0.67;;;;;7.60;94995.00;;;;5053050;28;20281;-62
2023/04/15 08:18:47;;;;;;;1.20;1.13;;;;;7.70;94991.00;;;;5056217;28;20227;-63
2023/04/15 08:21:15;;;;;;;0.77;0.77;;;;;8.00;95001.00;;;;5057126;28;20198;-62
2023/04/15 08:23:43;;;;;;;0.90;0.90;;;;;8.30;94999.00;;;;5057114;28;20565;-62
2023/04/15 08:26:11;;;;;;;1.63;1.53;;;;;8.40;95003.00;;;;5039260;28;20195;-62
2023/04/15 08:28:40;;;;;;;0.80;0.80;;;;;8.50;94995.00;;;;5056771;28;20204;-62
2023/04/15 08:31:08;;;;;;;1.50;0.57;;;;;8.70;95003.00;;;;5056740;28;20201;-62
2023/04/15 08:33:35;;;;;;;1.00;1.00;;;;;8.90;95006.00;;;;5056744;28;20223;-62
2023/04/15 08:36:04;;;;;;;1.07;1.07;;;;;9.00;94999.00;;;;5038786;28;20207;-62
2023/04/15 08:38:32;;;;;;;0.60;0.60;;;;;9.20;94998.00;;;;5056591;28;20216;-62
2023/04/15 08:41:03;;;;;;;6.67;2.27;;;;;9.30;95011.00;;;;5056884;28;20258;-64
2023/04/15 08:43:37;;;;;;;1.33;1.23;;;;;9.40;95007.00;;;;5056898;28;20532;-61
2023/04/15 08:46:05;;;;;;;2.37;1.27;;;;;9.70;95011.00;;;;5056479;28;20246;-63
2023/04/15 08:48:34;;;;;;;0.70;0.70;;;;;9.70;95004.00;;;;5056660;28;20624;-62
2023/04/15 08:51:03;;;;;;;0.97;0.97;;;;;9.80;95007.00;;;;5056457;28;20188;-62
2023/04/15 08:53:31;;;;;;;0.70;0.70;;;;;10.10;95013.00;;;;5056379;28;20211;-63
2023/04/15 08:56:02;;;;;;;0.67;0.67;;;;;10.40;95015.00;;;;5038423;28;20204;-63
2023/04/15 08:58:30;;;;;;;0.97;0.97;;;;;10.60;95015.00;;;;5056054;28;20721;-62
2023/04/15 09:00:58;;;;;;;0.70;0.70;;;;;10.60;95011.00;;;;5038390;28;20682;-63
2023/04/15 09:03:25;;;;;;;0.50;0.50;;;;;10.80;95014.00;;;;5056155;28;20196;-62
2023/04/15 09:05:53;;;;;;;0.60;0.60;;;;;10.80;95018.00;;;;5056363;28;20196;-62
2023/04/15 09:08:22;;;;;;;0.70;0.70;;;;;10.90;95013.00;;;;5056348;28;20240;-63
2023/04/15 09:10:50;;;;;;;3.17;1.40;;;;;11.00;95018.00;;;;5055993;28;20196;-63
2023/04/15 09:13:18;;;;;;;0.70;0.70;;;;;11.20;95018.00;;;;5056134;28;20188;-63
2023/04/15 09:15:45;;;;;;;0.80;0.80;;;;;11.30;95018.00;;;;5055969;28;20219;-63
2023/04/15 09:18:14;;;;;;;2.27;1.20;;;;;11.20;95025.00;;;;5055692;28;20286;-63
2023/04/15 09:20:42;;;;;;;3.90;1.60;;;;;11.50;95029.00;;;;5055808;28;20200;-63
2023/04/15 09:23:13;;;;;;;0.60;0.60;;;;;11.50;95036.00;;;;5055762;28;20559;-63
2023/04/15 09:25:42;;;;;;;0.70;0.70;;;;;11.30;95029.00;;;;5055754;28;20188;-63
2023/04/15 09:28:10;;;;;;;0.70;0.70;;;;;11.50;95034.00;;;;5055642;28;20254;-63
2023/04/15 09:30:38;;;;;;;0.83;0.83;;;;;11.60;95031.00;;;;5054923;28;20188;-62
2023/04/15 09:33:07;;;;;;;0.50;0.50;;;;;11.70;95037.00;;;;5056130;28;20200;-62
2023/04/15 09:35:35;;;;;;;0.50;0.50;;;;;11.80;95033.00;;;;5055900;28;20184;-63
2023/04/15 09:38:05;;;;;;;1.20;1.10;;;;;12.10;95037.00;;;;5055825;28;20259;-63
2023/04/15 09:40:34;;;;;;;0.70;0.70;;;;;11.80;95031.00;;;;5055725;28;20538;-64
2023/04/15 09:43:03;;;;;;;0.77;0.77;;;;;12.10;95034.00;;;;5055738;28;20196;-63
2023/04/15 09:45:32;;;;;;;0.60;0.60;;;;;12.00;95040.00;;;;5055409;28;20214;-63
2023/04/15 09:48:14;;;;;;;0.83;0.83;;;;;12.00;95042.00;;;;5055810;28;20208;-63
2023/04/15 09:50:43;;;;;;;0.60;0.60;;;;;12.00;95042.00;;;;5055860;28;20624;-61
2023/04/15 09:53:11;;;;;;;0.67;0.67;;;;;12.00;95041.00;;;;5055217;28;20679;-62
2023/04/15 09:55:38;;;;;;;0.70;0.70;;;;;12.00;95051.00;;;;5056274;28;20234;-71
2023/04/15 09:58:19;;;;;;;0.43;0.43;;;;;12.10;95049.00;;;;5055111;28;20585;-65
2023/04/15 10:00:48;;;;;;;0.60;0.60;;;;;11.80;95044.00;;;;5055334;28;20242;-60
2023/04/15 10:03:20;;;;;;;0.60;0.60;;;;;12.10;95046.00;;;;5038142;28;20648;-64
2023/04/15 10:05:49;;;;;;;0.50;0.50;;;;;12.20;95051.00;;;;5055091;28;20238;-67
2023/04/15 10:08:18;;;;;;;0.50;0.50;;;;;12.10;95047.00;;;;5054884;28;20245;-65
2023/04/15 10:10:47;;;;;;;0.60;0.60;;;;;12.10;95051.00;;;;5055091;28;20188;-73
2023/04/15 10:13:18;;;;;;;0.60;0.60;;;;;12.00;95051.00;;;;5055199;28;20199;-62
2023/04/15 10:15:50;;;;;;;1.10;1.10;;;;;12.50;95057.00;;;;5055061;28;20279;-61
2023/04/15 10:18:20;;;;;;;0.60;0.60;;;;;12.50;95053.00;;;;5054669;28;20291;-62
2023/04/15 10:20:49;;;;;;;1.00;1.00;;;;;12.60;95051.00;;;;5055248;28;20269;-63
2023/04/15 10:23:17;;;;;;;1.17;1.17;;;;;12.60;95058.00;;;;5054952;28;20663;-63
2023/04/15 10:25:46;;;;;;;0.60;0.60;;;;;12.70;95056.00;;;;5055129;28;20192;-63
2023/04/15 10:28:15;;;;;;;0.67;0.67;;;;;12.50;95057.00;;;;5054512;28;20212;-63
2023/04/15 10:30:44;;;;;;;0.60;0.60;;;;;12.60;95051.00;;;;5054577;28;20204;-64
2023/04/15 10:33:12;;;;;;;4.40;1.93;;;;;13.00;95057.00;;;;5054785;28;20188;-62
2023/04/15 10:35:40;;;;;;;0.50;0.50;;;;;12.90;95060.00;;;;5054446;28;20231;-62
2023/04/15 10:38:35;;;;;;;0.53;0.53;;;;;12.90;95054.00;;;;5054215;28;20227;-62
2023/04/15 10:41:25;;;;;;;0.90;0.90;;;;;12.80;95070.00;;;;5053541;28;20180;-64
2023/04/15 10:43:56;;;;;;;0.60;0.60;;;;;13.10;95070.00;;;;5049291;28;20238;-63
2023/04/15 10:46:35;;;;;;;0.63;0.63;;;;;13.40;95081.00;;;;5054424;28;20242;-64
2023/04/15 10:49:09;;;;;;;0.53;0.53;;;;;13.20;95079.00;;;;5036497;28;20566;-64
2023/04/15 10:51:40;;;;;;;0.57;0.57;;;;;13.10;95077.00;;;;5054465;28;20190;-64
2023/04/15 10:54:13;;;;;;;0.70;0.70;;;;;13.60;95070.00;;;;5054310;28;20295;-64
2023/04/15 10:56:43;;;;;;;0.97;0.97;;;;;13.90;95079.00;;;;5054184;28;20215;-64
2023/04/15 10:59:12;;;;;;;0.83;0.83;;;;;13.90;95087.00;;;;5054252;28;20206;-63
2023/04/15 11:02:01;;;;;;;0.50;0.50;;;;;14.30;95076.00;;;;5054709;28;20552;-64
2023/04/15 11:04:54;;;;;;;3.50;1.60;;;;;14.60;95081.00;;;;5049537;28;20212;-64
2023/04/15 11:07:36;;;;;;;0.80;0.80;;;;;14.90;95084.00;;;;5035956;28;20269;-63
2023/04/15 11:10:03;;;;;;;1.27;1.10;;;;;14.30;95103.00;;;;5053868;28;20235;-64
2023/04/15 11:12:37;;;;;;;1.33;1.23;;;;;13.80;95105.00;;;;5053736;28;20188;-63
2023/04/15 11:15:29;;;;;;;0.73;0.73;;;;;13.60;95107.00;;;;5035833;28;20199;-64
2023/04/15 11:17:57;;;;;;;0.53;0.53;;;;;13.60;95105.00;;;;5053468;28;20212;-64
2023/04/15 11:20:25;;;;;;;0.90;0.90;;;;;13.70;95103.00;;;;5053757;28;20226;-64
2023/04/15 11:22:54;;;;;;;0.70;0.70;;;;;13.50;95109.00;;;;5053628;28;20729;-67
2023/04/15 11:25:25;;;;;;;0.70;0.70;;;;;13.80;95108.00;;;;5054334;28;20655;-64
2023/04/15 11:27:54;;;;;;;0.60;0.60;;;;;14.00;95114.00;;;;5053456;28;20291;-64
2023/04/15 11:30:23;;;;;;;0.80;0.80;;;;;14.10;95100.00;;;;5035686;28;20192;-64
2023/04/15 11:32:53;;;;;;;0.70;0.70;;;;;14.40;95126.00;;;;5053600;28;20302;-65
2023/04/15 11:35:20;;;;;;;2.70;1.23;;;;;14.40;95122.00;;;;5053822;28;20203;-63
2023/04/15 11:37:49;;;;;;;0.97;0.97;;;;;14.30;95124.00;;;;5053192;28;20247;-63
2023/04/15 11:40:17;;;;;;;0.60;0.60;;;;;13.90;95118.00;;;;5053222;28;20275;-63
2023/04/15 11:42:46;;;;;;;0.60;0.60;;;;;14.20;95123.00;;;;5053164;28;20195;-63
2023/04/15 11:45:15;;;;;;;1.43;0.93;;;;;14.50;95111.00;;;;5053218;28;20200;-63
2023/04/15 11:47:43;;;;;;;0.80;0.80;;;;;14.80;95123.00;;;;5053249;28;20258;-62
2023/04/15 11:50:19;;;;;;;0.90;0.90;;;;;14.70;95123.00;;;;5053114;28;20299;-63
2023/04/15 11:52:56;;;;;;;1.00;1.00;;;;;15.10;95133.00;;;;5053350;28;20386;-63
2023/04/15 11:55:24;;;;;;;0.63;0.63;;;;;15.10;95138.00;;;;5053305;28;20603;-62
2023/04/15 11:58:07;;;;;;;2.97;1.00;;;;;14.90;95138.00;;;;5034965;28;20756;-62
2023/04/15 12:00:35;;;;;;;0.60;0.60;;;;;14.90;95141.00;;;;5081521;22;20258;-63
2023/04/15 12:03:13;;;;;;;0.50;0.50;;;;;14.90;95137.00;;;;5073258;28;20623;-62
2023/04/15 12:06:11;;;;;;;1.03;1.03;;;;;15.10;95150.00;;;;5073250;28;20182;-62
2023/04/15 12:09:03;;;;;;;1.50;1.20;;;;;15.00;95152.00;;;;5073011;28;20183;-64
2023/04/15 12:11:36;;;;;;;0.97;0.97;;;;;14.60;95153.00;;;;5053209;28;20643;-63
2023/04/15 12:14:06;;;;;;;0.60;0.60;;;;;14.50;95149.00;;;;5052907;28;20240;-62
2023/04/15 12:16:35;;;;;;;0.90;0.90;;;;;14.90;95161.00;;;;5053089;28;20206;-63
2023/04/15 12:19:09;;;;;;;0.97;0.97;;;;;14.80;95169.00;;;;5052866;28;20216;-62
2023/04/15 12:21:40;;;;;;;0.77;0.77;;;;;14.30;95169.00;;;;5053082;28;20184;-62
2023/04/15 12:24:10;;;;;;;0.80;0.80;;;;;14.70;95171.00;;;;5053332;28;20631;-62
2023/04/15 12:26:43;;;;;;;2.73;1.13;;;;;14.90;95171.00;;;;5052759;28;20196;-61
2023/04/15 12:29:11;;;;;;;0.60;0.60;;;;;15.20;95178.00;;;;5052743;28;20297;-62
2023/04/15 12:31:51;;;;;;;1.17;1.10;;;;;15.30;95180.00;;;;5052961;28;20246;-62